sensor_id;sensor_type;location;lat;lon;timestamp;pressure;altitude;pressure_sealevel;temperature;humidity
6136;BME280;24008;42.664;23.372;2023-05-18T00:01:50;94216.31;;;11.74;100.00
6136;BME280;24008;42.664;23.372;2023-05-18T00:04:18;94215.66;;;11.72;100.00
6136;BME280;24008;42.664;23.372;2023-05-18T00:06:48;94218.22;;;11.72;100.00
6136;BME280;24008;42.664;23.372;2023-05-18T00:09:21;94168.63;;;11.40;100.00
6136;BME280;24008;42.664;23.372;2023-05-18T00:11:48;94210.53;;;11.64;100.00
6136;BME280;24008;42.664;23.372;2023-05-18T00:14:17;94202.69;;;11.49;100.00
6136;BME280;24008;42.664;23.372;2023-05-18T00:16:43;94177.09;;;11.25;100.00
6136;BME280;24008;42.664;23.372;2023-05-18T00:19:10;94207.34;;;11.45;100.00
6136;BME280;24008;42.664;23.372;2023-05-18T00:21:39;94220.78;;;11.55;100.00
6136;BME280;24008;42.664;23.372;2023-05-18T00:24:07;94220.16;;;11.53;100.00
6136;BME280;24008;42.664;23.372;2023-05-18T00:26:36;94215.03;;;11.53;100.00
6136;BME280;24008;42.664;23.372;2023-05-18T00:29:02;94185.09;;;11.38;100.00
6136;BME280;24008;42.664;23.372;2023-05-18T00:31:31;94226.22;;;11.52;100.00
6136;BME280;24008;42.664;23.372;2023-05-18T00:34:01;94216.63;;;11.54;100.00
6136;BME280;24008;42.664;23.372;2023-05-18T00:36:28;94123.19;;;10.94;100.00
6136;BME280;24008;42.664;23.372;2023-05-18T00:38:55;94217.75;;;11.52;100.00
6136;BME280;24008;42.664;23.372;2023-05-18T00:41:22;94188.16;;;11.33;100.00
6136;BME280;24008;42.664;23.372;2023-05-18T00:43:49;94179.19;;;11.21;100.00
6136;BME280;24008;42.664;23.372;2023-05-18T00:46:16;94211.19;;;11.41;100.00
6136;BME280;24008;42.664;23.372;2023-05-18T00:48:44;94134.22;;;10.94;100.00
6136;BME280;24008;42.664;23.372;2023-05-18T00:51:12;94210.53;;;11.47;100.00
6136;BME280;24008;42.664;23.372;2023-05-18T00:53:39;94203.19;;;11.44;100.00
6136;BME280;24008;42.664;23.372;2023-05-18T00:56:07;94203.19;;;11.44;100.00
6136;BME280;24008;42.664;23.372;2023-05-18T00:58:35;94182.34;;;11.23;100.00
6136;BME280;24008;42.664;23.372;2023-05-18T01:01:03;94198.03;;;11.28;100.00
6136;BME280;24008;42.664;23.372;2023-05-18T01:03:32;94207.31;;;11.37;100.00
6136;BME280;24008;42.664;23.372;2023-05-18T01:06:00;94204.75;;;11.37;100.00
6136;BME280;24008;42.664;23.372;2023-05-18T01:08:31;94115.81;;;10.74;100.00
6136;BME280;24008;42.664;23.372;2023-05-18T01:11:04;94187.16;;;11.18;100.00
6136;BME280;24008;42.664;23.372;2023-05-18T01:13:39;94215.00;;;11.37;100.00
6136;BME280;24008;42.664;23.372;2023-05-18T01:16:11;94217.91;;;11.34;100.00
6136;BME280;24008;42.664;23.372;2023-05-18T01:18:45;94214.53;;;11.34;100.00
6136;BME280;24008;42.664;23.372;2023-05-18T01:21:26;94217.72;;;11.36;100.00
6136;BME280;24008;42.664;23.372;2023-05-18T01:24:03;94221.25;;;11.35;100.00
6136;BME280;24008;42.664;23.372;2023-05-18T01:26:42;94216.59;;;11.38;100.00
6136;BME280;24008;42.664;23.372;2023-05-18T01:29:12;94168.41;;;11.01;100.00
6136;BME280;24008;42.664;23.372;2023-05-18T01:31:39;94224.94;;;11.40;100.00
6136;BME280;24008;42.664;23.372;2023-05-18T01:34:06;94142.69;;;10.95;100.00
6136;BME280;24008;42.664;23.372;2023-05-18T01:36:32;94218.69;;;11.43;100.00
6136;BME280;24008;42.664;23.372;2023-05-18T01:39:00;94225.88;;;11.47;100.00
6136;BME280;24008;42.664;23.372;2023-05-18T01:41:28;94201.25;;;11.38;100.00
6136;BME280;24008;42.664;23.372;2023-05-18T01:44:03;94209.91;;;11.45;100.00
6136;BME280;24008;42.664;23.372;2023-05-18T01:46:36;94102.84;;;10.76;100.00
6136;BME280;24008;42.664;23.372;2023-05-18T01:49:11;94215.34;;;11.42;100.00
6136;BME280;24008;42.664;23.372;2023-05-18T01:51:43;94217.91;;;11.42;100.00
6136;BME280;24008;42.664;23.372;2023-05-18T01:54:13;94220.44;;;11.42;100.00
6136;BME280;24008;42.664;23.372;2023-05-18T01:56:42;94224.13;;;11.40;100.00
6136;BME280;24008;42.664;23.372;2023-05-18T01:59:12;94226.53;;;11.41;100.00
6136;BME280;24008;42.664;23.372;2023-05-18T02:01:39;94218.69;;;11.43;100.00
6136;BME280;24008;42.664;23.372;2023-05-18T02:04:07;94170.06;;;11.10;100.00
6136;BME280;24008;42.664;23.372;2023-05-18T02:06:34;94201.41;;;11.29;100.00
6136;BME280;24008;42.664;23.372;2023-05-18T02:09:02;94151.97;;;10.96;100.00
6136;BME280;24008;42.664;23.372;2023-05-18T02:11:29;94233.09;;;11.44;100.00
6136;BME280;24008;42.664;23.372;2023-05-18T02:13:56;94196.41;;;11.11;100.00
6136;BME280;24008;42.664;23.372;2023-05-18T02:16:24;94228.78;;;11.44;100.00
6136;BME280;24008;42.664;23.372;2023-05-18T02:18:51;94206.06;;;11.33;100.00
6136;BME280;24008;42.664;23.372;2023-05-18T02:21:19;94222.72;;;11.45;100.00
6136;BME280;24008;42.664;23.372;2023-05-18T02:23:46;94224.13;;;11.48;100.00
6136;BME280;24008;42.664;23.372;2023-05-18T02:26:13;94206.53;;;11.29;100.00
6136;BME280;24008;42.664;23.372;2023-05-18T02:28:40;94202.22;;;11.29;100.00
6136;BME280;24008;42.664;23.372;2023-05-18T02:31:08;94133.06;;;10.89;100.00
6136;BME280;24008;42.664;23.372;2023-05-18T02:33:37;94222.72;;;11.45;100.00
6136;BME280;24008;42.664;23.372;2023-05-18T02:36:07;94224.63;;;11.43;100.00
6136;BME280;24008;42.664;23.372;2023-05-18T02:38:35;94224.63;;;11.43;100.00
6136;BME280;24008;42.664;23.372;2023-05-18T02:41:03;94222.72;;;11.45;100.00
6136;BME280;24008;42.664;23.372;2023-05-18T02:43:29;94225.88;;;11.47;100.00
6136;BME280;24008;42.664;23.372;2023-05-18T02:45:56;94231.81;;;11.48;100.00
6136;BME280;24008;42.664;23.372;2023-05-18T02:48:23;94159.34;;;10.99;100.00
6136;BME280;24008;42.664;23.372;2023-05-18T02:50:51;94210.22;;;11.34;100.00
6136;BME280;24008;42.664;23.372;2023-05-18T02:53:19;94139.50;;;10.93;100.00
6136;BME280;24008;42.664;23.372;2023-05-18T02:55:47;94219.47;;;11.35;100.00
6136;BME280;24008;42.664;23.372;2023-05-18T02:58:14;94255.16;;;11.53;100.00
6136;BME280;24008;42.664;23.372;2023-05-18T03:00:41;94252.91;;;11.50;100.00
6136;BME280;24008;42.664;23.372;2023-05-18T03:03:08;94257.88;;;11.51;100.00
6136;BME280;24008;42.664;23.372;2023-05-18T03:05:39;94269.72;;;11.52;100.00
6136;BME280;24008;42.664;23.372;2023-05-18T03:08:07;94272.13;;;11.54;100.00
6136;BME280;24008;42.664;23.372;2023-05-18T03:10:35;94246.50;;;11.38;100.00
6136;BME280;24008;42.664;23.372;2023-05-18T03:13:02;94270.84;;;11.50;100.00
6136;BME280;24008;42.664;23.372;2023-05-18T03:15:29;94284.59;;;11.49;100.00
6136;BME280;24008;42.664;23.372;2023-05-18T03:17:56;94281.06;;;11.50;100.00
6136;BME280;24008;42.664;23.372;2023-05-18T03:20:24;94283.78;;;11.48;100.00
6136;BME280;24008;42.664;23.372;2023-05-18T03:22:51;94262.19;;;11.35;100.00
6136;BME280;24008;42.664;23.372;2023-05-18T03:25:19;94293.56;;;11.53;100.00
6136;BME280;24008;42.664;23.372;2023-05-18T03:27:46;94270.97;;;11.40;100.00
6136;BME280;24008;42.664;23.372;2023-05-18T03:30:13;94299.03;;;11.58;100.00
6136;BME280;24008;42.664;23.372;2023-05-18T03:32:40;94109.31;;;10.38;100.00
6136;BME280;24008;42.664;23.372;2023-05-18T03:35:08;94289.59;;;11.59;100.00
6136;BME280;24008;42.664;23.372;2023-05-18T03:37:35;94296.28;;;11.60;100.00
6136;BME280;24008;42.664;23.372;2023-05-18T03:40:08;94219.13;;;11.14;100.00
6136;BME280;24008;42.664;23.372;2023-05-18T03:42:37;94294.38;;;11.62;100.00
6136;BME280;24008;42.664;23.372;2023-05-18T03:45:06;94270.53;;;11.45;100.00
6136;BME280;24008;42.664;23.372;2023-05-18T03:47:33;94297.88;;;11.61;100.00
6136;BME280;24008;42.664;23.372;2023-05-18T03:50:01;94264.75;;;11.43;100.00
6136;BME280;24008;42.664;23.372;2023-05-18T03:52:28;94317.09;;;11.65;100.00
6136;BME280;24008;42.664;23.372;2023-05-18T03:54:55;94288.91;;;11.48;100.00
6136;BME280;24008;42.664;23.372;2023-05-18T03:57:22;94328.00;;;11.67;100.00
6136;BME280;24008;42.664;23.372;2023-05-18T03:59:51;94315.84;;;11.69;100.00
6136;BME280;24008;42.664;23.372;2023-05-18T04:02:17;94285.72;;;11.46;100.00
6136;BME280;24008;42.664;23.372;2023-05-18T04:04:44;94290.19;;;11.52;100.00
6136;BME280;24008;42.664;23.372;2023-05-18T04:07:11;94292.44;;;11.55;100.00
6136;BME280;24008;42.664;23.372;2023-05-18T04:09:41;94301.91;;;11.63;100.00
6136;BME280;24008;42.664;23.372;2023-05-18T04:12:09;94324.19;;;11.79;100.00
6136;BME280;24008;42.664;23.372;2023-05-18T04:14:36;94265.72;;;11.34;100.00
6136;BME280;24008;42.664;23.372;2023-05-18T04:17:04;94334.28;;;11.80;100.00
6136;BME280;24008;42.664;23.372;2023-05-18T04:19:31;94333.19;;;11.83;100.00
6136;BME280;24008;42.664;23.372;2023-05-18T04:21:59;94339.06;;;11.83;100.00
6136;BME280;24008;42.664;23.372;2023-05-18T04:24:29;94332.84;;;11.86;100.00
6136;BME280;24008;42.664;23.372;2023-05-18T04:26:57;94288.94;;;11.65;100.00
6136;BME280;24008;42.664;23.372;2023-05-18T04:29:25;94296.63;;;11.65;100.00
6136;BME280;24008;42.664;23.372;2023-05-18T04:31:52;94327.72;;;11.86;100.00
6136;BME280;24008;42.664;23.372;2023-05-18T04:34:27;94330.63;;;11.91;100.00
6136;BME280;24008;42.664;23.372;2023-05-18T04:36:55;94326.78;;;11.95;100.00
6136;BME280;24008;42.664;23.372;2023-05-18T04:39:23;94334.78;;;12.00;100.00
6136;BME280;24008;42.664;23.372;2023-05-18T04:41:50;94327.44;;;12.05;100.00
6136;BME280;24008;42.664;23.372;2023-05-18T04:44:22;94338.94;;;12.09;100.00
6136;BME280;24008;42.664;23.372;2023-05-18T04:46:50;94345.34;;;12.13;100.00
6136;BME280;24008;42.664;23.372;2023-05-18T04:49:17;94333.50;;;12.12;100.00
6136;BME280;24008;42.664;23.372;2023-05-18T04:51:48;94318.78;;;12.06;100.00
6136;BME280;24008;42.664;23.372;2023-05-18T04:54:20;94210.22;;;11.34;100.00
6136;BME280;24008;42.664;23.372;2023-05-18T04:56:48;94241.56;;;11.52;100.00
6136;BME280;24008;42.664;23.372;2023-05-18T04:59:14;94365.22;;;12.27;100.00
6136;BME280;24008;42.664;23.372;2023-05-18T05:01:41;94332.56;;;12.13;100.00
6136;BME280;24008;42.664;23.372;2023-05-18T05:04:08;94277.47;;;11.77;100.00
6136;BME280;24008;42.664;23.372;2023-05-18T05:06:35;94365.53;;;12.24;100.00
6136;BME280;24008;42.664;23.372;2023-05-18T05:09:04;94320.38;;;11.91;100.00
6136;BME280;24008;42.664;23.372;2023-05-18T05:11:30;94370.66;;;12.16;100.00
6136;BME280;24008;42.664;23.372;2023-05-18T05:13:57;94313.47;;;11.83;100.00
6136;BME280;24008;42.664;23.372;2023-05-18T05:16:24;94347.28;;;12.03;100.00
6136;BME280;24008;42.664;23.372;2023-05-18T05:18:51;94324.50;;;11.84;100.00
6136;BME280;24008;42.664;23.372;2023-05-18T05:21:17;94355.56;;;11.97;100.00
6136;BME280;24008;42.664;23.372;2023-05-18T05:23:44;94384.13;;;12.18;100.00
6136;BME280;24008;42.664;23.372;2023-05-18T05:26:13;94386.34;;;12.13;100.00
6136;BME280;24008;42.664;23.372;2023-05-18T05:28:42;94303.00;;;11.52;100.00
6136;BME280;24008;42.664;23.372;2023-05-18T05:31:09;94217.84;;;11.10;100.00
6136;BME280;24008;42.664;23.372;2023-05-18T05:33:36;94389.56;;;12.15;100.00
6136;BME280;24008;42.664;23.372;2023-05-18T05:36:03;94345.63;;;11.86;100.00
6136;BME280;24008;42.664;23.372;2023-05-18T05:38:30;94373.53;;;12.05;100.00
6136;BME280;24008;42.664;23.372;2023-05-18T05:40:57;94395.97;;;12.19;100.00
6136;BME280;24008;42.664;23.372;2023-05-18T05:43:25;94380.56;;;12.03;100.00
6136;BME280;24008;42.664;23.372;2023-05-18T05:45:53;94396.44;;;12.23;100.00
6136;BME280;24008;42.664;23.372;2023-05-18T05:48:20;94324.50;;;11.76;100.00
6136;BME280;24008;42.664;23.372;2023-05-18T05:50:47;94402.38;;;12.23;100.00
6136;BME280;24008;42.664;23.372;2023-05-18T05:53:13;94354.31;;;11.93;100.00
6136;BME280;24008;42.664;23.372;2023-05-18T05:55:42;94405.56;;;12.25;100.00
6136;BME280;24008;42.664;23.372;2023-05-18T05:58:09;94401.56;;;12.23;100.00
6136;BME280;24008;42.664;23.372;2023-05-18T06:00:37;94401.72;;;12.21;100.00
6136;BME280;24008;42.664;23.372;2023-05-18T06:03:04;94409.41;;;12.21;100.00
6136;BME280;24008;42.664;23.372;2023-05-18T06:05:33;94410.22;;;12.22;100.00
6136;BME280;24008;42.664;23.372;2023-05-18T06:08:00;94195.88;;;10.91;100.00
6136;BME280;24008;42.664;23.372;2023-05-18T06:10:33;94330.56;;;11.75;100.00
6136;BME280;24008;42.664;23.372;2023-05-18T06:13:00;94409.75;;;12.26;100.00
6136;BME280;24008;42.664;23.372;2023-05-18T06:15:27;94415.03;;;12.25;100.00
6136;BME280;24008;42.664;23.372;2023-05-18T06:17:55;94406.38;;;12.26;100.00
6136;BME280;24008;42.664;23.372;2023-05-18T06:20:22;94419.84;;;12.28;100.00
6136;BME280;24008;42.664;23.372;2023-05-18T06:22:49;94391.13;;;12.08;100.00
6136;BME280;24008;42.664;23.372;2023-05-18T06:25:16;94365.03;;;11.97;100.00
6136;BME280;24008;42.664;23.372;2023-05-18T06:27:43;94441.44;;;12.34;100.00
6136;BME280;24008;42.664;23.372;2023-05-18T06:30:11;94426.22;;;12.32;100.00
6136;BME280;24008;42.664;23.372;2023-05-18T06:32:38;94431.84;;;12.36;100.00
6136;BME280;24008;42.664;23.372;2023-05-18T06:35:07;94426.25;;;12.40;100.00
6136;BME280;24008;42.664;23.372;2023-05-18T06:37:34;94408.13;;;12.34;100.00
6136;BME280;24008;42.664;23.372;2023-05-18T06:40:01;94235.97;;;11.33;100.00
6136;BME280;24008;42.664;23.372;2023-05-18T06:42:29;94397.25;;;12.40;100.00
6136;BME280;24008;42.664;23.372;2023-05-18T06:44:57;94442.78;;;12.78;100.00
6136;BME280;24008;42.664;23.372;2023-05-18T06:47:24;94435.56;;;12.90;100.00
6136;BME280;24008;42.664;23.372;2023-05-18T06:49:51;94422.88;;;12.88;100.00
6136;BME280;24008;42.664;23.372;2023-05-18T06:52:19;94445.47;;;13.25;100.00
6136;BME280;24008;42.664;23.372;2023-05-18T06:54:46;94437.25;;;13.38;100.00
6136;BME280;24008;42.664;23.372;2023-05-18T06:57:13;94317.47;;;12.67;100.00
6136;BME280;24008;42.664;23.372;2023-05-18T06:59:40;94417.16;;;13.42;100.00
6136;BME280;24008;42.664;23.372;2023-05-18T07:02:06;94459.66;;;13.60;100.00
6136;BME280;24008;42.664;23.372;2023-05-18T07:04:33;94468.97;;;13.61;100.00
6136;BME280;24008;42.664;23.372;2023-05-18T07:07:00;94469.94;;;13.60;100.00
6136;BME280;24008;42.664;23.372;2023-05-18T07:09:28;94474.41;;;13.58;100.00
6136;BME280;24008;42.664;23.372;2023-05-18T07:11:55;94326.28;;;12.56;100.00
6136;BME280;24008;42.664;23.372;2023-05-18T07:14:22;94445.31;;;13.27;100.00
6136;BME280;24008;42.664;23.372;2023-05-18T07:16:49;94480.88;;;13.46;100.00
6136;BME280;24008;42.664;23.372;2023-05-18T07:19:16;94482.84;;;13.28;100.00
6136;BME280;24008;42.664;23.372;2023-05-18T07:21:43;94483.47;;;13.14;100.00
6136;BME280;24008;42.664;23.372;2023-05-18T07:24:10;94451.75;;;12.90;100.00
6136;BME280;24008;42.664;23.372;2023-05-18T07:26:38;94369.09;;;12.32;100.00
6136;BME280;24008;42.664;23.372;2023-05-18T07:29:05;94490.22;;;12.98;100.00
6136;BME280;24008;42.664;23.372;2023-05-18T07:31:32;94493.09;;;12.79;100.00
6136;BME280;24008;42.664;23.372;2023-05-18T07:34:03;94490.06;;;12.68;100.00
6136;BME280;24008;42.664;23.372;2023-05-18T07:36:30;94497.88;;;12.58;100.00
6136;BME280;24008;42.664;23.372;2023-05-18T07:38:57;94506.53;;;12.57;100.00
6136;BME280;24008;42.664;23.372;2023-05-18T07:41:24;94476.38;;;12.35;100.00
6136;BME280;24008;42.664;23.372;2023-05-18T07:43:53;94476.06;;;12.30;100.00
6136;BME280;24008;42.664;23.372;2023-05-18T07:46:20;94515.97;;;12.48;100.00
6136;BME280;24008;42.664;23.372;2023-05-18T07:48:47;94490.94;;;12.34;100.00
6136;BME280;24008;42.664;23.372;2023-05-18T07:51:14;94458.38;;;12.10;100.00
6136;BME280;24008;42.664;23.372;2023-05-18T07:53:40;94523.81;;;12.39;100.00
6136;BME280;24008;42.664;23.372;2023-05-18T07:56:07;94523.81;;;12.39;100.00
6136;BME280;24008;42.664;23.372;2023-05-18T07:58:34;94504.53;;;12.18;100.00
6136;BME280;24008;42.664;23.372;2023-05-18T08:01:03;94513.50;;;12.22;100.00
6136;BME280;24008;42.664;23.372;2023-05-18T08:03:29;94486.56;;;12.02;100.00
6136;BME280;24008;42.664;23.372;2023-05-18T08:05:56;94505.00;;;12.14;100.00
6136;BME280;24008;42.664;23.372;2023-05-18T08:08:24;94511.56;;;12.16;100.00
6136;BME280;24008;42.664;23.372;2023-05-18T08:10:51;94488.28;;;11.94;100.00
6136;BME280;24008;42.664;23.372;2023-05-18T08:13:18;94532.38;;;12.21;100.00
6136;BME280;24008;42.664;23.372;2023-05-18T08:15:45;94552.66;;;12.41;100.00
6136;BME280;24008;42.664;23.372;2023-05-18T08:18:13;94561.63;;;12.45;100.00
6136;BME280;24008;42.664;23.372;2023-05-18T08:20:40;94559.38;;;12.42;100.00
6136;BME280;24008;42.664;23.372;2023-05-18T08:23:08;94575.06;;;12.39;100.00
6136;BME280;24008;42.664;23.372;2023-05-18T08:25:35;94573.31;;;12.39;100.00
6136;BME280;24008;42.664;23.372;2023-05-18T08:28:02;94573.81;;;12.43;100.00
6136;BME280;24008;42.664;23.372;2023-05-18T08:30:29;94591.25;;;12.39;100.00
6136;BME280;24008;42.664;23.372;2023-05-18T08:32:56;94462.41;;;11.71;100.00
6136;BME280;24008;42.664;23.372;2023-05-18T08:35:24;94580.84;;;12.41;100.00
6136;BME280;24008;42.664;23.372;2023-05-18T08:37:51;94529.28;;;12.02;100.00
6136;BME280;24008;42.664;23.372;2023-05-18T08:40:18;94586.72;;;12.33;100.00
6136;BME280;24008;42.664;23.372;2023-05-18T08:42:49;94529.56;;;11.90;100.00
6136;BME280;24008;42.664;23.372;2023-05-18T08:45:22;94589.47;;;12.32;100.00
6136;BME280;24008;42.664;23.372;2023-05-18T08:47:54;94594.63;;;12.40;100.00
6136;BME280;24008;42.664;23.372;2023-05-18T08:50:23;94595.88;;;12.36;100.00
6136;BME280;24008;42.664;23.372;2023-05-18T08:52:54;94557.34;;;12.11;99.72
6136;BME280;24008;42.664;23.372;2023-05-18T08:55:22;94607.13;;;12.43;100.00
6136;BME280;24008;42.664;23.372;2023-05-18T08:57:53;94499.25;;;11.78;100.00
6136;BME280;24008;42.664;23.372;2023-05-18T09:00:21;94608.91;;;12.50;100.00
6136;BME280;24008;42.664;23.372;2023-05-18T09:02:49;94495.75;;;11.79;100.00
6136;BME280;24008;42.664;23.372;2023-05-18T09:05:17;94544.22;;;12.06;100.00
6136;BME280;24008;42.664;23.372;2023-05-18T09:07:46;94614.84;;;12.51;100.00
6136;BME280;24008;42.664;23.372;2023-05-18T09:10:13;94571.47;;;12.23;100.00
6136;BME280;24008;42.664;23.372;2023-05-18T09:12:42;94622.53;;;12.51;99.24
6136;BME280;24008;42.664;23.372;2023-05-18T09:15:11;94619.97;;;12.51;96.63
6136;BME280;24008;42.664;23.372;2023-05-18T09:17:38;94598.78;;;12.41;95.36
6136;BME280;24008;42.664;23.372;2023-05-18T09:20:06;94621.94;;;12.65;94.71
6136;BME280;24008;42.664;23.372;2023-05-18T09:22:34;94535.88;;;12.04;93.13
6136;BME280;24008;42.664;23.372;2023-05-18T09:25:04;94468.16;;;11.73;91.51
6136;BME280;24008;42.664;23.372;2023-05-18T09:27:33;94627.59;;;12.85;94.25
6136;BME280;24008;42.664;23.372;2023-05-18T09:30:00;94629.19;;;12.94;96.43
6136;BME280;24008;42.664;23.372;2023-05-18T09:32:28;94552.53;;;12.58;100.00
6136;BME280;24008;42.664;23.372;2023-05-18T09:35:03;94518.66;;;12.31;100.00
6136;BME280;24008;42.664;23.372;2023-05-18T09:37:31;94632.41;;;12.96;100.00
6136;BME280;24008;42.664;23.372;2023-05-18T09:39:59;94639.97;;;12.89;100.00
6136;BME280;24008;42.664;23.372;2023-05-18T09:42:33;94431.59;;;11.46;100.00
6136;BME280;24008;42.664;23.372;2023-05-18T09:45:01;94580.84;;;12.49;100.00
6136;BME280;24008;42.664;23.372;2023-05-18T09:47:28;94639.31;;;12.87;100.00
6136;BME280;24008;42.664;23.372;2023-05-18T09:49:55;94358.94;;;10.97;100.00
6136;BME280;24008;42.664;23.372;2023-05-18T09:52:22;94637.00;;;12.68;100.00
6136;BME280;24008;42.664;23.372;2023-05-18T09:54:57;94663.78;;;12.74;100.00
6136;BME280;24008;42.664;23.372;2023-05-18T09:57:25;94624.81;;;12.70;100.00
6136;BME280;24008;42.664;23.372;2023-05-18T10:00:02;94587.53;;;12.34;100.00
6136;BME280;24008;42.664;23.372;2023-05-18T10:02:37;94608.91;;;12.58;100.00
6136;BME280;24008;42.664;23.372;2023-05-18T10:05:05;94598.81;;;12.49;100.00
6136;BME280;24008;42.664;23.372;2023-05-18T10:07:33;94652.94;;;12.88;100.00
6136;BME280;24008;42.664;23.372;2023-05-18T10:10:01;94663.50;;;12.93;100.00
6136;BME280;24008;42.664;23.372;2023-05-18T10:12:28;94642.00;;;12.78;100.00
6136;BME280;24008;42.664;23.372;2023-05-18T10:14:57;94661.13;;;12.99;100.00
6136;BME280;24008;42.664;23.372;2023-05-18T10:17:25;94660.19;;;13.01;100.00
6136;BME280;24008;42.664;23.372;2023-05-18T10:19:53;94448.63;;;11.72;100.00
6136;BME280;24008;42.664;23.372;2023-05-18T10:22:21;94613.16;;;12.76;100.00
6136;BME280;24008;42.664;23.372;2023-05-18T10:24:50;94660.19;;;13.09;100.00
6136;BME280;24008;42.664;23.372;2023-05-18T10:27:22;94558.38;;;12.35;100.00
6136;BME280;24008;42.664;23.372;2023-05-18T10:29:52;94615.38;;;12.71;100.00
6136;BME280;24008;42.664;23.372;2023-05-18T10:32:22;94673.16;;;13.07;100.00
6136;BME280;24008;42.664;23.372;2023-05-18T10:34:51;94379.31;;;11.23;100.00
6136;BME280;24008;42.664;23.372;2023-05-18T10:37:21;94676.28;;;13.19;100.00
6136;BME280;24008;42.664;23.372;2023-05-18T10:39:49;94667.94;;;13.17;100.00
6136;BME280;24008;42.664;23.372;2023-05-18T10:42:18;94681.13;;;13.38;100.00
6136;BME280;24008;42.664;23.372;2023-05-18T10:44:46;94685.13;;;13.41;100.00
6136;BME280;24008;42.664;23.372;2023-05-18T10:47:28;94537.94;;;12.51;98.14
6136;BME280;24008;42.664;23.372;2023-05-18T10:49:57;94682.28;;;13.52;98.80
6136;BME280;24008;42.664;23.372;2023-05-18T10:52:27;94560.06;;;12.68;100.00
6136;BME280;24008;42.664;23.372;2023-05-18T10:54:57;94698.47;;;13.52;97.39
6136;BME280;24008;42.664;23.372;2023-05-18T10:57:28;94585.09;;;12.82;95.21
6136;BME280;24008;42.664;23.372;2023-05-18T11:00:02;94182.06;;;10.26;94.26
6136;BME280;24008;42.664;23.372;2023-05-18T11:02:35;94284.28;;;10.94;92.29
6136;BME280;24008;42.664;23.372;2023-05-18T11:05:07;93914.19;;;8.62;92.66
6136;BME280;24008;42.664;23.372;2023-05-18T11:08:23;93861.53;;;7.84;93.27
6136;BME280;24008;42.664;23.372;2023-05-18T11:11:02;94554.28;;;12.50;91.29
6136;BME280;24008;42.664;23.372;2023-05-18T11:13:33;94395.25;;;11.09;92.40
6136;BME280;24008;42.664;23.372;2023-05-18T11:16:04;94723.47;;;13.26;94.00
6136;BME280;24008;42.664;23.372;2023-05-18T11:18:38;94676.63;;;12.82;95.67
6136;BME280;24008;42.664;23.372;2023-05-18T11:21:18;94519.75;;;11.78;98.34
6136;BME280;24008;42.664;23.372;2023-05-18T11:26:55;94664.19;;;12.19;100.00
6136;BME280;24008;42.664;23.372;2023-05-18T11:29:30;94746.78;;;12.39;100.00
6136;BME280;24008;42.664;23.372;2023-05-18T11:31:58;94734.88;;;12.30;100.00
6136;BME280;24008;42.664;23.372;2023-05-18T11:34:39;94736.09;;;12.17;100.00
6136;BME280;24008;42.664;23.372;2023-05-18T11:37:09;94727.22;;;12.12;100.00
6136;BME280;24008;42.664;23.372;2023-05-18T11:39:36;94733.22;;;12.20;100.00
6136;BME280;24008;42.664;23.372;2023-05-18T11:42:08;94733.06;;;12.22;100.00
6136;BME280;24008;42.664;23.372;2023-05-18T11:44:36;94734.88;;;12.30;100.00
6136;BME280;24008;42.664;23.372;2023-05-18T11:47:10;94611.78;;;11.62;100.00
6136;BME280;24008;42.664;23.372;2023-05-18T11:49:42;94742.81;;;12.18;100.00
6136;BME280;24008;42.664;23.372;2023-05-18T11:52:15;94677.75;;;11.85;100.00
6136;BME280;24008;42.664;23.372;2023-05-18T11:54:44;94752.50;;;12.33;100.00
6136;BME280;24008;42.664;23.372;2023-05-18T11:57:13;94732.47;;;12.28;100.00
6136;BME280;24008;42.664;23.372;2023-05-18T11:59:42;94730.72;;;12.29;100.00
6136;BME280;24008;42.664;23.372;2023-05-18T12:02:12;94702.28;;;12.14;100.00
6136;BME280;24008;42.664;23.372;2023-05-18T12:04:50;94736.84;;;12.36;100.00
6136;BME280;24008;42.664;23.372;2023-05-18T12:07:18;94741.00;;;12.37;100.00
6136;BME280;24008;42.664;23.372;2023-05-18T12:09:46;94745.47;;;12.35;100.00
6136;BME280;24008;42.664;23.372;2023-05-18T12:12:14;94713.19;;;12.16;100.00
6136;BME280;24008;42.664;23.372;2023-05-18T12:14:46;94704.84;;;12.14;100.00
6136;BME280;24008;42.664;23.372;2023-05-18T12:17:14;94688.25;;;12.00;100.00
6136;BME280;24008;42.664;23.372;2023-05-18T12:19:42;94711.72;;;12.13;100.00
6136;BME280;24008;42.664;23.372;2023-05-18T12:22:11;94741.63;;;12.31;100.00
6136;BME280;24008;42.664;23.372;2023-05-18T12:24:39;94737.31;;;12.31;100.00
6136;BME280;24008;42.664;23.372;2023-05-18T12:27:07;94747.63;;;12.21;100.00
6136;BME280;24008;42.664;23.372;2023-05-18T12:29:37;94769.00;;;12.30;100.00
6136;BME280;24008;42.664;23.372;2023-05-18T12:32:06;94746.13;;;12.37;100.00
6136;BME280;24008;42.664;23.372;2023-05-18T12:34:33;94714.31;;;12.21;100.00
6136;BME280;24008;42.664;23.372;2023-05-18T12:37:01;94747.63;;;12.47;100.00
6136;BME280;24008;42.664;23.372;2023-05-18T12:39:29;94705.09;;;12.29;100.00
6136;BME280;24008;42.664;23.372;2023-05-18T12:42:10;94752.66;;;12.57;100.00
6136;BME280;24008;42.664;23.372;2023-05-18T12:44:57;94689.97;;;12.17;100.00
6136;BME280;24008;42.664;23.372;2023-05-18T12:47:24;94641.09;;;11.85;100.00
6136;BME280;24008;42.664;23.372;2023-05-18T12:49:51;94676.69;;;11.96;100.00
6136;BME280;24008;42.664;23.372;2023-05-18T12:52:20;94696.72;;;12.18;100.00
6136;BME280;24008;42.664;23.372;2023-05-18T12:54:49;94743.69;;;12.53;100.00
6136;BME280;24008;42.664;23.372;2023-05-18T12:57:20;94758.69;;;12.48;100.00
6136;BME280;24008;42.664;23.372;2023-05-18T12:59:50;94637.75;;;11.67;100.00
6136;BME280;24008;42.664;23.372;2023-05-18T13:02:27;94760.16;;;12.24;100.00